Terminal Aerodrome Forecast
Issued by NWS

Home | Current Version | Previous Version | Text Only | Print | Product List | Glossary On
Versions: 1 2 3 4 5 6 7 8 9 10 11 12 13 14 15 16
000
FTAK31 PAJN 170523
TAFAKT
TAF
PAKT 170523Z 1706/1806 VRB04KT P6SM -SHRA SCT025 OVC035
      WS020/27025KT
     FM171200 15006KT P6SM VCSH BKN040
     FM172000 15007KT 5SM -SHRA SCT015 OVC025
     FM180300 13007KT 6SM -SHRA SCT025 OVC035
      AMD LTD TO CLD VIS AND WIND 1706/1715=

USA.gov is the U.S. government's official web portal to all federal, state and local government web resources and services.